createdAt,value
2022-07-26T00:01:20.698Z,17.59
2022-07-26T00:03:48.642Z,17.46
2022-07-26T00:06:15.267Z,17.55
2022-07-26T00:08:42.011Z,17.57
2022-07-26T00:11:08.761Z,17.62
2022-07-26T00:13:35.287Z,17.56
2022-07-26T00:16:02.546Z,17.67
2022-07-26T00:18:29.377Z,17.68
2022-07-26T00:20:55.955Z,17.74
2022-07-26T00:23:23.036Z,17.73
2022-07-26T00:25:49.728Z,17.79
2022-07-26T00:28:16.238Z,17.84
2022-07-26T00:30:42.863Z,17.76
2022-07-26T00:33:09.445Z,17.84
2022-07-26T00:35:36.024Z,17.82
2022-07-26T00:38:02.609Z,17.84
2022-07-26T00:40:30.430Z,17.86
2022-07-26T00:42:56.939Z,17.90
2022-07-26T00:45:24.039Z,17.87
2022-07-26T00:47:50.666Z,17.84
2022-07-26T00:50:18.868Z,17.84
2022-07-26T00:52:48.406Z,17.86
2022-07-26T00:55:15.661Z,17.93
2022-07-26T00:57:43.328Z,17.88
2022-07-26T01:00:14.223Z,17.81
2022-07-26T01:02:41.234Z,17.92
2022-07-26T01:05:08.585Z,17.81
2022-07-26T01:07:36.764Z,18.04
2022-07-26T01:10:07.490Z,17.78
2022-07-26T01:12:34.273Z,17.75
2022-07-26T01:15:00.849Z,17.72
2022-07-26T01:17:28.151Z,17.73
2022-07-26T01:19:54.647Z,17.55
2022-07-26T01:22:21.259Z,17.52
2022-07-26T01:24:47.803Z,17.75
2022-07-26T01:27:14.380Z,17.61
2022-07-26T01:29:41.100Z,17.75
2022-07-26T01:32:08.812Z,17.68
2022-07-26T01:34:35.503Z,17.71
2022-07-26T01:37:02.442Z,17.61
2022-07-26T01:39:29.111Z,17.65
2022-07-26T01:41:56.784Z,17.68
2022-07-26T01:44:23.856Z,17.85
2022-07-26T01:46:50.600Z,17.76
2022-07-26T01:49:17.338Z,17.59
2022-07-26T01:51:44.017Z,17.52
2022-07-26T01:54:11.654Z,17.73
2022-07-26T01:56:38.578Z,17.72
2022-07-26T01:59:05.216Z,17.61
2022-07-26T02:01:39.681Z,17.58
2022-07-26T02:04:29.971Z,17.51
2022-07-26T02:06:56.437Z,17.42
2022-07-26T02:09:22.987Z,17.67
2022-07-26T02:11:51.841Z,17.70
2022-07-26T02:14:25.484Z,17.61
2022-07-26T02:16:59.595Z,17.48
2022-07-26T02:19:29.704Z,17.49
2022-07-26T02:21:56.470Z,17.60
2022-07-26T02:24:23.604Z,17.49
2022-07-26T02:26:50.092Z,17.41
2022-07-26T02:29:16.746Z,17.29
2022-07-26T02:31:43.259Z,17.25
2022-07-26T02:34:15.984Z,17.46
2022-07-26T02:36:42.540Z,17.33
2022-07-26T02:39:09.478Z,17.42
2022-07-26T02:41:36.000Z,17.45
2022-07-26T02:44:02.586Z,17.49
2022-07-26T02:46:29.189Z,17.29
2022-07-26T02:48:57.882Z,17.16
2022-07-26T02:51:24.421Z,17.43
2022-07-26T02:53:51.006Z,17.28
2022-07-26T02:56:17.729Z,17.09
2022-07-26T02:58:44.220Z,17.03
2022-07-26T03:01:10.900Z,17.01
2022-07-26T03:03:38.271Z,17.05
2022-07-26T03:06:05.302Z,17.00
2022-07-26T03:08:31.778Z,16.97
2022-07-26T03:10:58.310Z,16.97
2022-07-26T03:13:24.773Z,16.96
2022-07-26T03:15:51.332Z,16.88
2022-07-26T03:18:17.913Z,16.76
2022-07-26T03:20:45.131Z,16.79
2022-07-26T03:23:11.710Z,16.79
2022-07-26T03:25:38.223Z,16.91
2022-07-26T03:28:05.004Z,17.15
2022-07-26T03:30:31.548Z,16.76
2022-07-26T03:32:58.021Z,16.75
2022-07-26T03:35:25.364Z,16.66
2022-07-26T03:37:52.426Z,16.73
2022-07-26T03:40:19.584Z,16.64
2022-07-26T03:42:47.427Z,16.56
2022-07-26T03:45:15.468Z,16.61
2022-07-26T03:47:42.399Z,16.51
2022-07-26T03:50:09.599Z,16.50
2022-07-26T03:52:36.114Z,16.49
2022-07-26T03:55:22.903Z,16.54
2022-07-26T03:57:49.475Z,16.42
2022-07-26T04:00:16.178Z,16.37
2022-07-26T04:02:42.783Z,16.47
2022-07-26T04:05:10.249Z,16.24
2022-07-26T04:07:52.791Z,16.34
2022-07-26T04:10:20.899Z,16.31
2022-07-26T04:12:47.457Z,16.45
2022-07-26T04:15:16.085Z,16.44
2022-07-26T04:17:43.437Z,16.34
2022-07-26T04:20:11.881Z,16.43
2022-07-26T04:22:39.702Z,16.35
2022-07-26T04:25:07.967Z,16.35
2022-07-26T04:27:34.937Z,16.27
2022-07-26T04:30:01.590Z,16.23
2022-07-26T04:32:28.454Z,16.25
2022-07-26T04:34:54.921Z,16.36
2022-07-26T04:37:21.425Z,16.51
2022-07-26T04:39:52.935Z,16.33
2022-07-26T04:42:21.403Z,16.28
2022-07-26T04:44:47.872Z,16.42
2022-07-26T04:47:14.357Z,16.34
2022-07-26T04:49:40.858Z,16.23
2022-07-26T04:52:07.473Z,16.25
2022-07-26T04:54:33.977Z,16.33
2022-07-26T04:57:00.484Z,16.32
2022-07-26T04:59:26.957Z,16.48
2022-07-26T05:01:53.493Z,16.40
2022-07-26T05:04:20.053Z,16.40
2022-07-26T05:06:46.569Z,16.41
2022-07-26T05:09:13.106Z,16.44
2022-07-26T05:11:39.659Z,16.57
2022-07-26T05:14:06.520Z,16.53
2022-07-26T05:16:33.281Z,16.46
2022-07-26T05:19:00.060Z,16.48
2022-07-26T05:21:28.002Z,16.65
2022-07-26T05:23:55.529Z,16.50
2022-07-26T05:26:22.226Z,16.52
2022-07-26T05:28:49.347Z,16.60
2022-07-26T05:31:16.278Z,16.62
2022-07-26T05:33:42.931Z,16.67
2022-07-26T05:36:09.655Z,16.69
2022-07-26T05:38:36.492Z,16.72
2022-07-26T05:41:03.067Z,16.80
2022-07-26T05:43:39.451Z,16.75
2022-07-26T05:46:09.833Z,16.84
2022-07-26T05:48:37.056Z,16.90
2022-07-26T05:51:03.711Z,16.89
2022-07-26T05:53:30.192Z,16.93
2022-07-26T05:55:56.714Z,16.91
2022-07-26T05:58:23.197Z,16.90
2022-07-26T06:00:49.730Z,16.98
2022-07-26T06:03:22.191Z,17.01
2022-07-26T06:05:49.385Z,17.08
2022-07-26T06:08:16.105Z,17.06
2022-07-26T06:10:42.629Z,17.15
2022-07-26T06:13:09.277Z,17.18
2022-07-26T06:15:37.841Z,17.27
2022-07-26T06:18:05.892Z,17.27
2022-07-26T06:20:32.817Z,17.33
2022-07-26T06:23:00.345Z,17.36
2022-07-26T06:25:27.551Z,17.40
2022-07-26T06:27:54.034Z,17.60
2022-07-26T06:30:20.527Z,17.43
2022-07-26T06:32:47.290Z,17.79
2022-07-26T06:35:15.018Z,18.03
2022-07-26T06:37:42.614Z,18.00
2022-07-26T06:40:10.539Z,17.96
2022-07-26T06:42:37.926Z,17.84
2022-07-26T06:45:05.802Z,18.16
2022-07-26T06:47:32.526Z,18.27
2022-07-26T06:49:59.054Z,18.18
2022-07-26T06:52:25.796Z,18.43
2022-07-26T06:54:52.271Z,18.47
2022-07-26T06:57:18.831Z,18.54
2022-07-26T06:59:45.286Z,18.97
2022-07-26T07:02:11.789Z,19.11
2022-07-26T07:04:38.365Z,19.29
2022-07-26T07:07:08.453Z,19.44
2022-07-26T07:09:36.010Z,19.60
2022-07-26T07:12:09.337Z,19.69
2022-07-26T07:14:37.120Z,19.68
2022-07-26T07:17:03.631Z,19.65
2022-07-26T07:19:38.034Z,19.76
2022-07-26T07:22:06.007Z,19.76
2022-07-26T07:24:32.538Z,19.73
2022-07-26T07:27:01.206Z,19.74
2022-07-26T07:29:27.910Z,19.81
2022-07-26T07:31:55.824Z,19.83
2022-07-26T07:34:23.858Z,19.95
2022-07-26T07:36:50.824Z,20.01
2022-07-26T07:39:17.888Z,19.96
2022-07-26T07:41:45.491Z,20.19
2022-07-26T07:44:12.287Z,20.22
2022-07-26T07:46:38.872Z,20.29
2022-07-26T07:49:06.890Z,20.35
2022-07-26T07:51:34.002Z,20.39
2022-07-26T07:54:05.626Z,20.26
2022-07-26T07:56:33.067Z,20.24
2022-07-26T07:58:59.641Z,20.30
2022-07-26T08:01:39.239Z,20.31
2022-07-26T08:04:07.431Z,20.07
2022-07-26T08:06:33.938Z,19.98
2022-07-26T08:09:00.504Z,20.02
2022-07-26T08:11:27.362Z,20.07
2022-07-26T08:13:56.538Z,20.15
2022-07-26T08:16:23.130Z,20.11
2022-07-26T08:18:56.990Z,20.17
2022-07-26T08:21:24.095Z,20.15
2022-07-26T08:23:52.884Z,20.04
2022-07-26T08:26:19.482Z,20.07
2022-07-26T08:28:47.872Z,20.35
2022-07-26T08:31:16.355Z,20.54
2022-07-26T08:33:45.844Z,20.65
2022-07-26T08:36:14.422Z,20.75
2022-07-26T08:38:41.844Z,20.68
2022-07-26T08:41:08.381Z,20.38
2022-07-26T08:43:51.636Z,20.43
2022-07-26T08:46:25.515Z,20.46
2022-07-26T08:48:53.167Z,20.42
2022-07-26T08:51:22.550Z,20.65
2022-07-26T08:53:50.273Z,20.83
2022-07-26T08:56:16.789Z,21.10
2022-07-26T08:58:43.837Z,21.25
2022-07-26T09:01:14.932Z,21.46
2022-07-26T09:03:43.065Z,21.45
2022-07-26T09:06:18.374Z,21.28
2022-07-26T09:08:48.480Z,21.16
2022-07-26T09:11:24.334Z,21.31
2022-07-26T09:13:58.535Z,21.49
2022-07-26T09:16:25.691Z,21.66
2022-07-26T09:18:52.659Z,21.70
2022-07-26T09:21:29.078Z,21.89
2022-07-26T09:23:56.639Z,21.94
2022-07-26T09:26:26.025Z,22.07
2022-07-26T09:29:06.229Z,22.01
2022-07-26T09:31:33.726Z,21.82
2022-07-26T09:34:00.340Z,22.00
2022-07-26T09:36:27.840Z,21.94
2022-07-26T09:39:04.200Z,22.02
2022-07-26T09:41:35.333Z,21.91
2022-07-26T09:44:07.216Z,21.77
2022-07-26T09:46:35.788Z,22.02
2022-07-26T09:49:19.671Z,21.88
2022-07-26T09:51:48.670Z,22.20
2022-07-26T09:54:31.970Z,22.33
2022-07-26T09:56:59.062Z,22.49
2022-07-26T09:59:27.624Z,22.62
2022-07-26T10:01:55.779Z,22.78
2022-07-26T10:04:22.861Z,22.78
2022-07-26T10:06:50.196Z,22.69
2022-07-26T10:09:18.622Z,22.75
2022-07-26T10:11:54.424Z,22.84
2022-07-26T10:14:33.086Z,23.03
2022-07-26T10:17:00.847Z,23.01
2022-07-26T10:19:45.800Z,23.17
2022-07-26T10:22:31.435Z,23.24
2022-07-26T10:25:17.889Z,23.09
2022-07-26T10:27:56.140Z,23.24
2022-07-26T10:30:33.563Z,23.08
2022-07-26T10:33:02.807Z,22.81
2022-07-26T10:35:41.327Z,22.64
2022-07-26T10:38:09.234Z,22.50
2022-07-26T10:40:56.299Z,22.30
2022-07-26T10:43:40.085Z,22.22
2022-07-26T10:46:16.748Z,21.61
2022-07-26T10:48:59.822Z,21.34
2022-07-26T10:51:31.728Z,20.72
2022-07-26T10:54:03.537Z,20.54
2022-07-26T10:56:33.501Z,20.30
2022-07-26T10:59:00.980Z,19.94
2022-07-26T11:01:40.644Z,19.82
2022-07-26T11:04:18.560Z,19.61
2022-07-26T11:06:45.787Z,19.48
2022-07-26T11:09:12.745Z,19.23
2022-07-26T11:11:40.101Z,19.21
2022-07-26T11:14:16.049Z,19.07
2022-07-26T11:16:47.911Z,19.02
2022-07-26T11:19:19.990Z,18.86
2022-07-26T11:21:53.788Z,18.74
2022-07-26T11:24:22.007Z,18.69
2022-07-26T11:26:48.614Z,18.57
2022-07-26T11:29:17.385Z,18.43
2022-07-26T11:31:50.560Z,18.44
2022-07-26T11:34:28.503Z,18.43
2022-07-26T11:36:57.239Z,18.45
2022-07-26T11:39:26.132Z,18.49
2022-07-26T11:42:04.934Z,18.67
2022-07-26T11:44:32.167Z,18.71
2022-07-26T11:46:59.524Z,18.63
2022-07-26T11:52:24.294Z,18.48
2022-07-26T11:54:53.232Z,18.54
2022-07-26T11:57:20.098Z,18.70
2022-07-26T11:59:50.383Z,18.48
2022-07-26T12:02:17.202Z,18.65
2022-07-26T12:04:44.846Z,18.86
2022-07-26T12:07:13.985Z,18.73
2022-07-26T12:09:43.275Z,19.01
2022-07-26T12:12:18.976Z,19.00
2022-07-26T12:14:56.657Z,19.16
2022-07-26T12:17:23.178Z,19.17
2022-07-26T12:19:49.735Z,18.99
2022-07-26T12:22:21.302Z,19.12
2022-07-26T12:24:57.850Z,19.05
2022-07-26T12:27:30.423Z,19.02
2022-07-26T12:30:17.358Z,19.10
2022-07-26T12:32:46.095Z,19.16
2022-07-26T12:35:15.578Z,19.11
2022-07-26T12:37:48.144Z,18.89
2022-07-26T12:40:22.305Z,18.99
2022-07-26T12:42:55.840Z,18.93
2022-07-26T12:45:35.475Z,18.92
2022-07-26T12:48:10.033Z,19.09
2022-07-26T12:50:36.900Z,18.97
2022-07-26T12:53:06.877Z,19.05
2022-07-26T12:55:34.455Z,19.20
2022-07-26T12:58:01.140Z,19.21
2022-07-26T13:00:29.993Z,19.02
2022-07-26T13:02:57.332Z,19.13
2022-07-26T13:05:24.079Z,19.08
2022-07-26T13:07:54.228Z,18.85
2022-07-26T13:10:36.698Z,19.08
2022-07-26T13:13:04.134Z,18.98
2022-07-26T13:15:36.174Z,19.12
2022-07-26T13:18:05.059Z,19.11
2022-07-26T13:20:31.590Z,19.14
2022-07-26T13:22:58.155Z,19.20
2022-07-26T13:25:25.439Z,19.41
2022-07-26T13:27:55.518Z,19.52
2022-07-26T13:30:24.262Z,19.59
2022-07-26T13:32:51.811Z,19.88
2022-07-26T13:35:18.345Z,19.79
2022-07-26T13:37:44.806Z,19.67
2022-07-26T13:40:11.750Z,19.98
2022-07-26T13:42:38.330Z,20.16
2022-07-26T13:45:06.579Z,20.10
2022-07-26T13:47:33.291Z,20.27
2022-07-26T13:49:59.875Z,20.11
2022-07-26T13:52:26.444Z,20.18
2022-07-26T13:54:53.162Z,20.01
2022-07-26T13:57:19.626Z,19.85
2022-07-26T13:59:46.085Z,20.04
2022-07-26T14:02:12.967Z,19.98
2022-07-26T14:04:39.657Z,20.14
2022-07-26T14:07:06.180Z,20.14
2022-07-26T14:09:32.680Z,20.27
2022-07-26T14:11:59.596Z,20.32
2022-07-26T14:14:26.134Z,20.35
2022-07-26T14:16:52.697Z,20.37
2022-07-26T14:19:19.390Z,20.39
2022-07-26T14:21:50.484Z,20.37
2022-07-26T14:24:26.354Z,20.35
2022-07-26T14:26:56.815Z,20.36
2022-07-26T14:29:25.688Z,20.35
2022-07-26T14:31:52.320Z,20.41
2022-07-26T14:34:18.903Z,20.51
2022-07-26T14:36:45.445Z,20.63
2022-07-26T14:39:12.018Z,20.55
2022-07-26T14:41:38.631Z,20.66
2022-07-26T14:44:05.445Z,20.64
2022-07-26T14:46:32.139Z,20.59
2022-07-26T14:48:58.807Z,20.48
2022-07-26T14:51:25.559Z,20.58
2022-07-26T14:53:52.705Z,20.50
2022-07-26T14:56:19.204Z,20.60
2022-07-26T14:58:45.678Z,20.57
2022-07-26T15:01:12.307Z,20.54
2022-07-26T15:03:39.116Z,20.71
2022-07-26T15:06:05.678Z,20.72
2022-07-26T15:08:32.162Z,20.57
2022-07-26T15:10:58.722Z,20.77
2022-07-26T15:13:25.254Z,20.80
2022-07-26T15:15:52.123Z,20.66
2022-07-26T15:18:18.802Z,21.01
2022-07-26T15:20:45.331Z,20.86
2022-07-26T15:23:14.912Z,20.84
2022-07-26T15:25:41.417Z,20.85
2022-07-26T15:28:08.011Z,20.92
2022-07-26T15:30:35.384Z,20.67
2022-07-26T15:33:02.129Z,20.76
2022-07-26T15:35:29.925Z,20.64
2022-07-26T15:37:56.696Z,20.73
2022-07-26T15:40:23.402Z,20.74
2022-07-26T15:42:52.094Z,20.76
2022-07-26T15:45:22.551Z,20.63
2022-07-26T15:47:56.727Z,20.69
2022-07-26T15:50:26.132Z,20.79
2022-07-26T15:52:52.768Z,20.77
2022-07-26T15:55:20.665Z,20.80
2022-07-26T15:57:47.880Z,20.71
2022-07-26T16:00:15.406Z,20.80
2022-07-26T16:02:42.331Z,20.62
2022-07-26T16:05:10.151Z,20.51
2022-07-26T16:07:37.447Z,20.62
2022-07-26T16:10:05.048Z,20.71
2022-07-26T16:12:31.578Z,20.62
2022-07-26T16:14:58.053Z,20.59
2022-07-26T16:17:25.301Z,20.67
2022-07-26T16:19:53.115Z,20.66
2022-07-26T16:22:19.710Z,20.47
2022-07-26T16:24:46.253Z,20.61
2022-07-26T16:27:12.755Z,20.27
2022-07-26T16:29:39.294Z,20.24
2022-07-26T16:32:11.178Z,20.22
2022-07-26T16:34:38.277Z,20.32
2022-07-26T16:37:05.586Z,20.20
2022-07-26T16:39:32.114Z,20.34
2022-07-26T16:42:03.223Z,20.36
2022-07-26T16:44:32.938Z,20.46
2022-07-26T16:46:59.554Z,20.39
2022-07-26T16:49:26.167Z,20.30
2022-07-26T16:51:52.788Z,20.12
2022-07-26T16:54:19.287Z,20.25
2022-07-26T16:56:45.846Z,19.98
2022-07-26T16:59:12.643Z,20.29
2022-07-26T17:01:39.388Z,20.15
2022-07-26T17:04:05.974Z,20.09
2022-07-26T17:06:32.551Z,20.19
2022-07-26T17:08:59.074Z,20.21
2022-07-26T17:11:25.626Z,20.18
2022-07-26T17:13:53.354Z,20.05
2022-07-26T17:16:21.544Z,20.14
2022-07-26T17:18:51.613Z,20.19
2022-07-26T17:21:18.111Z,20.08
2022-07-26T17:23:44.714Z,20.12
2022-07-26T17:26:11.362Z,20.06
2022-07-26T17:28:37.927Z,20.09
2022-07-26T17:31:04.427Z,19.99
2022-07-26T17:33:31.031Z,20.00
2022-07-26T17:35:58.777Z,20.01
2022-07-26T17:38:30.029Z,19.97
2022-07-26T17:40:56.766Z,20.00
2022-07-26T17:43:23.257Z,19.77
2022-07-26T17:45:50.456Z,19.76
2022-07-26T17:48:16.950Z,19.87
2022-07-26T17:50:43.463Z,19.88
2022-07-26T17:53:09.969Z,19.52
2022-07-26T17:55:36.576Z,19.65
2022-07-26T17:58:03.128Z,19.71
2022-07-26T18:00:29.871Z,19.74
2022-07-26T18:02:57.347Z,19.67
2022-07-26T18:05:29.959Z,19.47
2022-07-26T18:08:00.126Z,19.48
2022-07-26T18:10:27.614Z,19.62
2022-07-26T18:12:54.677Z,19.31
2022-07-26T18:15:21.505Z,19.51
2022-07-26T18:17:48.007Z,19.37
2022-07-26T18:20:14.538Z,19.37
2022-07-26T18:22:41.062Z,19.31
2022-07-26T18:25:07.991Z,19.36
2022-07-26T18:27:34.592Z,19.43
2022-07-26T18:30:01.238Z,19.40
2022-07-26T18:32:27.783Z,19.31
2022-07-26T18:34:55.329Z,18.91
2022-07-26T18:37:21.861Z,19.13
2022-07-26T18:39:52.815Z,19.12
2022-07-26T18:42:22.349Z,18.90
2022-07-26T18:44:49.322Z,18.96
2022-07-26T18:47:16.136Z,19.01
2022-07-26T18:49:43.926Z,19.05
2022-07-26T18:52:10.616Z,19.01
2022-07-26T18:54:37.539Z,18.86
2022-07-26T18:57:04.995Z,18.83
2022-07-26T18:59:32.273Z,19.05
2022-07-26T19:01:59.797Z,19.03
2022-07-26T19:04:26.823Z,18.89
2022-07-26T19:06:53.467Z,18.78
2022-07-26T19:09:20.236Z,18.80
2022-07-26T19:11:46.852Z,18.49
2022-07-26T19:14:14.210Z,18.49
2022-07-26T19:16:41.113Z,18.58
2022-07-26T19:19:08.264Z,18.53
2022-07-26T19:21:35.252Z,18.45
2022-07-26T19:24:01.967Z,18.60
2022-07-26T19:26:29.831Z,18.27
2022-07-26T19:28:59.423Z,18.41
2022-07-26T19:31:27.317Z,18.14
2022-07-26T19:33:55.662Z,18.12
2022-07-26T19:36:25.966Z,17.95
2022-07-26T19:38:59.309Z,17.95
2022-07-26T19:41:25.808Z,18.01
2022-07-26T19:43:52.351Z,17.82
2022-07-26T19:46:19.852Z,17.86
2022-07-26T19:48:46.818Z,17.68
2022-07-26T19:51:13.883Z,17.70
2022-07-26T19:53:45.988Z,17.58
2022-07-26T19:56:13.033Z,17.65
2022-07-26T19:58:40.175Z,17.41
2022-07-26T20:01:06.984Z,17.58
2022-07-26T20:03:34.003Z,17.48
2022-07-26T20:06:02.467Z,17.31
2022-07-26T20:08:29.578Z,17.42
2022-07-26T20:10:56.670Z,17.24
2022-07-26T20:13:23.420Z,17.24
2022-07-26T20:15:50.107Z,17.20
2022-07-26T20:18:22.107Z,17.24
2022-07-26T20:20:49.308Z,17.06
2022-07-26T20:23:16.109Z,16.88
2022-07-26T20:25:42.858Z,17.14
2022-07-26T20:28:09.684Z,16.93
2022-07-26T20:30:36.636Z,16.96
2022-07-26T20:33:03.766Z,16.88
2022-07-26T20:35:31.852Z,16.85
2022-07-26T20:37:58.452Z,16.84
2022-07-26T20:40:27.516Z,16.86
2022-07-26T20:42:54.978Z,16.82
2022-07-26T20:45:24.028Z,16.80
2022-07-26T20:47:55.172Z,16.67
2022-07-26T20:50:23.435Z,16.59
2022-07-26T20:52:50.853Z,16.56
2022-07-26T20:55:19.015Z,16.48
2022-07-26T20:57:46.927Z,16.65
2022-07-26T21:00:14.872Z,16.62
2022-07-26T21:02:41.686Z,16.42
2022-07-26T21:05:09.030Z,16.52
2022-07-26T21:07:57.149Z,16.50
2022-07-26T21:10:22.620Z,16.32
2022-07-26T21:12:49.697Z,16.34
2022-07-26T21:15:16.239Z,16.43
2022-07-26T21:17:42.872Z,16.46
2022-07-26T21:20:10.774Z,16.12
2022-07-26T21:22:37.462Z,16.05
2022-07-26T21:25:05.622Z,16.13
2022-07-26T21:27:32.092Z,16.31
2022-07-26T21:29:58.549Z,16.22
2022-07-26T21:32:28.377Z,15.95
2022-07-26T21:34:57.885Z,16.00
2022-07-26T21:37:24.511Z,15.86
2022-07-26T21:39:51.086Z,15.87
2022-07-26T21:42:17.692Z,15.62
2022-07-26T21:44:44.447Z,15.84
2022-07-26T21:47:12.096Z,15.60
2022-07-26T21:49:38.920Z,15.61
2022-07-26T21:52:12.317Z,15.69
2022-07-26T21:54:38.925Z,15.66
2022-07-26T21:57:07.424Z,15.45
2022-07-26T21:59:34.008Z,15.48
2022-07-26T22:02:00.921Z,15.57
2022-07-26T22:04:27.487Z,15.31
2022-07-26T22:06:54.132Z,15.36
2022-07-26T22:09:20.650Z,15.15
2022-07-26T22:11:47.149Z,15.23
2022-07-26T22:14:13.846Z,15.30
2022-07-26T22:16:44.136Z,15.08
2022-07-26T22:19:11.005Z,15.22
2022-07-26T22:21:37.833Z,15.24
2022-07-26T22:24:04.682Z,15.28
2022-07-26T22:26:31.330Z,15.28
2022-07-26T22:28:58.946Z,15.12
2022-07-26T22:31:25.953Z,15.01
2022-07-26T22:33:52.593Z,14.81
2022-07-26T22:36:19.281Z,14.81
2022-07-26T22:38:46.361Z,14.82
2022-07-26T22:41:12.984Z,14.83
2022-07-26T22:43:39.541Z,14.98
2022-07-26T22:46:06.077Z,14.93
2022-07-26T22:48:37.086Z,14.70
2022-07-26T22:51:04.794Z,14.71
2022-07-26T22:53:31.341Z,14.61
2022-07-26T22:55:57.886Z,14.81
2022-07-26T22:58:24.355Z,14.63
2022-07-26T23:00:50.936Z,14.71
2022-07-26T23:03:19.746Z,14.75
2022-07-26T23:05:48.018Z,14.83
2022-07-26T23:08:45.904Z,14.75
2022-07-26T23:11:02.284Z,14.71
2022-07-26T23:13:28.878Z,14.71
2022-07-26T23:16:00.489Z,14.78
2022-07-26T23:18:27.891Z,14.68
2022-07-26T23:20:54.360Z,14.50
2022-07-26T23:23:20.838Z,14.37
2022-07-26T23:25:47.566Z,14.27
2022-07-26T23:28:35.517Z,14.04
2022-07-26T23:31:03.007Z,13.87
2022-07-26T23:33:50.791Z,13.70
2022-07-26T23:36:15.990Z,13.49
2022-07-26T23:38:42.462Z,13.21
2022-07-26T23:41:09.022Z,13.19
2022-07-26T23:43:35.521Z,13.20
2022-07-26T23:46:02.084Z,13.44
2022-07-26T23:48:28.622Z,13.44
2022-07-26T23:50:55.168Z,13.61
2022-07-26T23:53:26.761Z,13.62
2022-07-26T23:55:54.001Z,13.65
2022-07-26T23:58:20.669Z,13.78
